Time;durP1;ratioP1;P1;durP2;ratioP2;P2;SDS_P1;SDS_P2;PMS_P1;PMS_P2;Temp;Humidity;BMP_temperature;BMP_pressure;BME280_temperature;BME280_humidity;BME280_pressure;Samples;Min_cycle;Max_cycle;Signal;HPM_P1;HPM_P2
2022/01/30 00:01:32;;;;;;;0.30;0.30;;;;;;;;;;6270608;22;20027;-91
2022/01/30 00:03:59;;;;;;;2.35;0.70;;;;;;;;;;6270111;22;20112;-91
2022/01/30 00:06:27;;;;;;;0.57;0.55;;;;;;;;;;6271092;22;20024;-90
2022/01/30 00:08:54;;;;;;;1.35;0.50;;;;;;;;;;6270826;22;20077;-91
2022/01/30 00:11:24;;;;;;;0.50;0.45;;;;;;;;;;6270791;22;20542;-91
2022/01/30 00:13:50;;;;;;;0.77;0.47;;;;;;;;;;6270171;22;20046;-89
2022/01/30 00:16:19;;;;;;;0.47;0.30;;;;;;;;;;6270319;22;20082;-90
2022/01/30 00:18:55;;;;;;;1.00;0.50;;;;;;;;;;6271631;22;20027;-91
2022/01/30 00:21:33;;;;;;;0.38;0.35;;;;;;;;;;6272372;22;20097;-90
2022/01/30 00:24:13;;;;;;;0.20;0.20;;;;;;;;;;6271116;22;20019;-89
2022/01/30 00:26:41;;;;;;;1.35;0.30;;;;;;;;;;6271627;22;20028;-88
2022/01/30 00:29:11;;;;;;;0.75;0.40;;;;;;;;;;6272487;22;20020;-89
2022/01/30 00:31:39;;;;;;;0.52;0.35;;;;;;;;;;6272129;22;20023;-87
2022/01/30 00:34:06;;;;;;;0.45;0.30;;;;;;;;;;6272869;22;20098;-88
2022/01/30 00:36:33;;;;;;;0.82;0.47;;;;;;;;;;6271975;22;20348;-88
2022/01/30 00:39:00;;;;;;;0.35;0.32;;;;;;;;;;6272659;22;20027;-90
2022/01/30 00:41:33;;;;;;;0.35;0.30;;;;;;;;;;6273991;22;20937;-89
2022/01/30 00:44:03;;;;;;;1.90;0.30;;;;;;;;;;6271608;22;20015;-88
2022/01/30 00:46:46;;;;;;;0.30;0.28;;;;;;;;;;6271931;22;20019;-88
2022/01/30 00:49:12;;;;;;;0.40;0.30;;;;;;;;;;6271478;22;20015;-88
2022/01/30 00:51:56;;;;;;;0.57;0.30;;;;;;;;;;6272231;22;20023;-89
2022/01/30 00:54:27;;;;;;;2.00;0.30;;;;;;;;;;6271821;22;20026;-89
2022/01/30 00:57:14;;;;;;;1.23;0.30;;;;;;;;;;6273304;22;20429;-88
2022/01/30 00:59:41;;;;;;;0.20;0.20;;;;;;;;;;6272607;22;20019;-89
2022/01/30 01:02:08;;;;;;;0.75;0.40;;;;;;;;;;6271768;22;20035;-88
2022/01/30 01:04:38;;;;;;;1.15;0.30;;;;;;;;;;6271989;22;20046;-88
2022/01/30 01:10:10;;;;;;;0.35;0.28;;;;;;;;;;6272659;22;20357;-87
2022/01/30 01:12:59;;;;;;;0.50;0.38;;;;;;;;;;6271975;22;20119;-88
2022/01/30 01:23:20;;;;;;;0.28;0.28;;;;;;;;;;6272159;22;20036;-88
2022/01/30 01:23:48;;;;;;;2.15;0.40;;;;;;;;;;6271604;22;20520;-87
2022/01/30 01:26:15;;;;;;;0.80;0.50;;;;;;;;;;6271189;22;20054;-88
2022/01/30 01:28:43;;;;;;;0.77;0.30;;;;;;;;;;6272307;22;20104;-89
2022/01/30 01:31:10;;;;;;;0.80;0.40;;;;;;;;;;6271805;22;20055;-88
2022/01/30 01:33:47;;;;;;;0.40;0.40;;;;;;;;;;6270378;22;20023;-87
2022/01/30 01:36:14;;;;;;;0.52;0.40;;;;;;;;;;6272153;22;20061;-87
2022/01/30 01:38:41;;;;;;;0.10;0.10;;;;;;;;;;6272434;22;20043;-89
2022/01/30 01:41:08;;;;;;;0.73;0.40;;;;;;;;;;6272004;22;20024;-88
2022/01/30 01:43:36;;;;;;;0.75;0.30;;;;;;;;;;6272294;22;20020;-89
2022/01/30 01:46:12;;;;;;;0.30;0.30;;;;;;;;;;6272328;22;20073;-88
2022/01/30 01:48:38;;;;;;;0.77;0.40;;;;;;;;;;6272668;22;20072;-89
2022/01/30 01:51:08;;;;;;;0.50;0.30;;;;;;;;;;6272508;22;20327;-88
2022/01/30 01:53:35;;;;;;;1.50;0.40;;;;;;;;;;6271708;22;20020;-88
2022/01/30 01:56:01;;;;;;;0.30;0.30;;;;;;;;;;6272624;22;20050;-88
2022/01/30 01:58:29;;;;;;;0.73;0.32;;;;;;;;;;6271242;22;20024;-88
2022/01/30 02:00:59;;;;;;;0.40;0.40;;;;;;;;;;6272282;22;20031;-86
2022/01/30 02:03:27;;;;;;;3.10;0.28;;;;;;;;;;6272531;22;20419;-87
2022/01/30 02:05:58;;;;;;;0.63;0.32;;;;;;;;;;6272426;22;20024;-86
2022/01/30 02:08:30;;;;;;;0.63;0.22;;;;;;;;;;6270980;22;20022;-88
2022/01/30 02:11:04;;;;;;;0.85;0.30;;;;;;;;;;6272182;22;20091;-89
2022/01/30 02:14:01;;;;;;;0.52;0.38;;;;;;;;;;6272414;22;20027;-87
2022/01/30 02:24:59;;;;;;;1.75;1.08;;;;;;;;;;6271312;22;20105;-87
2022/01/30 02:27:32;;;;;;;0.50;0.30;;;;;;;;;;6271500;22;20126;-87
2022/01/30 02:29:59;;;;;;;0.68;0.40;;;;;;;;;;6271565;22;20024;-88
2022/01/30 02:32:27;;;;;;;1.05;0.57;;;;;;;;;;6272101;22;20015;-89
2022/01/30 02:34:54;;;;;;;0.73;0.38;;;;;;;;;;6271799;22;20453;-86
2022/01/30 02:37:21;;;;;;;1.17;0.57;;;;;;;;;;6271505;22;20028;-87
2022/01/30 02:39:50;;;;;;;0.95;0.30;;;;;;;;;;6270775;22;20052;-86
2022/01/30 02:42:20;;;;;;;0.80;0.47;;;;;;;;;;6271378;22;20081;-86
2022/01/30 02:44:52;;;;;;;0.95;0.30;;;;;;;;;;6270801;22;20024;-86
2022/01/30 02:47:27;;;;;;;1.45;0.40;;;;;;;;;;6270507;22;20042;-87
2022/01/30 02:50:14;;;;;;;1.20;0.52;;;;;;;;;;6270512;22;20022;-85
2022/01/30 02:52:42;;;;;;;0.50;0.30;;;;;;;;;;6270438;22;20015;-87
2022/01/30 02:55:11;;;;;;;0.55;0.32;;;;;;;;;;6270892;22;20023;-88
2022/01/30 02:57:38;;;;;;;1.30;0.20;;;;;;;;;;6272026;22;20825;-88
2022/01/30 03:00:07;;;;;;;1.23;0.40;;;;;;;;;;6270948;22;20028;-88
2022/01/30 03:02:34;;;;;;;0.50;0.30;;;;;;;;;;6271513;22;20057;-88
2022/01/30 03:05:00;;;;;;;1.20;0.50;;;;;;;;;;6272581;22;20031;-87
2022/01/30 03:07:27;;;;;;;1.15;0.40;;;;;;;;;;6272575;22;20789;-88
2022/01/30 03:09:54;;;;;;;1.40;0.50;;;;;;;;;;6271753;22;20449;-87
2022/01/30 03:12:23;;;;;;;1.02;0.50;;;;;;;;;;6273075;22;20027;-87
2022/01/30 03:14:49;;;;;;;1.00;0.40;;;;;;;;;;6271489;22;20449;-88
2022/01/30 03:17:16;;;;;;;1.02;0.47;;;;;;;;;;6270725;22;20058;-85
2022/01/30 03:19:43;;;;;;;1.70;0.52;;;;;;;;;;6270715;22;20055;-87
2022/01/30 03:22:10;;;;;;;0.75;0.30;;;;;;;;;;6270914;22;20027;-88
2022/01/30 03:24:37;;;;;;;1.40;0.60;;;;;;;;;;6270014;22;20065;-86
2022/01/30 03:27:04;;;;;;;1.00;0.40;;;;;;;;;;6270187;22;20356;-87
2022/01/30 03:29:34;;;;;;;2.53;0.63;;;;;;;;;;6270532;22;20050;-86
2022/01/30 03:32:01;;;;;;;1.17;0.47;;;;;;;;;;6271843;22;20034;-88
2022/01/30 03:34:28;;;;;;;0.70;0.30;;;;;;;;;;6270906;22;20024;-87
2022/01/30 03:36:55;;;;;;;1.35;0.40;;;;;;;;;;6270092;22;20020;-88
2022/01/30 03:39:22;;;;;;;1.30;0.28;;;;;;;;;;6269799;22;20016;-88
2022/01/30 03:41:49;;;;;;;1.55;0.50;;;;;;;;;;6271034;22;20073;-88
2022/01/30 03:44:17;;;;;;;0.43;0.43;;;;;;;;;;6271777;22;20081;-89
2022/01/30 03:46:45;;;;;;;0.75;0.38;;;;;;;;;;6271078;22;20392;-89
2022/01/30 03:49:12;;;;;;;0.45;0.22;;;;;;;;;;6270030;22;20408;-88
2022/01/30 03:51:39;;;;;;;1.63;0.38;;;;;;;;;;6269902;22;20023;-89
2022/01/30 03:54:08;;;;;;;1.55;0.47;;;;;;;;;;6272080;22;20027;-89
2022/01/30 03:56:35;;;;;;;1.45;0.68;;;;;;;;;;6269973;22;20023;-89
2022/01/30 03:59:02;;;;;;;0.75;0.30;;;;;;;;;;6270952;22;20023;-88
2022/01/30 04:01:30;;;;;;;0.30;0.25;;;;;;;;;;6270922;22;20507;-89
2022/01/30 04:03:59;;;;;;;0.57;0.32;;;;;;;;;;6271182;22;20023;-89
2022/01/30 04:06:27;;;;;;;2.78;0.30;;;;;;;;;;6270482;22;20344;-89
2022/01/30 04:08:54;;;;;;;1.65;0.45;;;;;;;;;;6270418;22;20078;-88
2022/01/30 04:11:22;;;;;;;1.67;0.30;;;;;;;;;;6271515;22;20051;-88
2022/01/30 04:13:52;;;;;;;2.85;0.50;;;;;;;;;;6271753;22;20562;-88
2022/01/30 04:16:19;;;;;;;0.63;0.40;;;;;;;;;;6272112;22;20023;-88
2022/01/30 04:18:46;;;;;;;0.40;0.28;;;;;;;;;;6272918;22;20399;-88
2022/01/30 04:21:15;;;;;;;2.47;0.30;;;;;;;;;;6273143;22;20440;-88
2022/01/30 04:23:42;;;;;;;2.47;0.98;;;;;;;;;;6272512;22;20350;-89
2022/01/30 04:26:09;;;;;;;1.35;0.30;;;;;;;;;;6271978;22;20050;-89
2022/01/30 04:28:36;;;;;;;1.48;0.43;;;;;;;;;;6271469;22;20020;-87
2022/01/30 04:31:03;;;;;;;0.80;0.57;;;;;;;;;;6272642;22;20019;-87
2022/01/30 04:33:30;;;;;;;0.60;0.30;;;;;;;;;;6273075;22;20024;-88
2022/01/30 04:35:58;;;;;;;0.22;0.20;;;;;;;;;;6272638;22;20024;-87
2022/01/30 04:38:32;;;;;;;0.30;0.30;;;;;;;;;;6272675;22;20016;-87
2022/01/30 04:41:23;;;;;;;0.70;0.40;;;;;;;;;;6272617;22;20016;-88
2022/01/30 04:52:30;;;;;;;0.85;0.43;;;;;;;;;;6272314;22;20026;-89
2022/01/30 04:55:38;;;;;;;0.40;0.40;;;;;;;;;;6272011;22;20030;-88
2022/01/30 04:58:02;;;;;;;0.32;0.30;;;;;;;;;;6273077;22;20095;-88
2022/01/30 05:00:48;;;;;;;0.30;0.30;;;;;;;;;;6271917;22;20043;-88
2022/01/30 05:03:34;;;;;;;0.38;0.30;;;;;;;;;;6272399;22;20023;-88
2022/01/30 05:06:05;;;;;;;;;;;;;;;;;;6272953;22;20047;-88
2022/01/30 05:08:32;;;;;;;1.02;0.50;;;;;;;;;;6273433;22;19954;-89
2022/01/30 05:11:01;;;;;;;1.80;0.30;;;;;;;;;;6272512;22;20011;-88
2022/01/30 05:13:31;;;;;;;1.45;0.30;;;;;;;;;;6272710;22;20019;-88
2022/01/30 05:15:59;;;;;;;1.60;0.30;;;;;;;;;;6271240;22;20020;-89
2022/01/30 05:18:28;;;;;;;1.42;0.50;;;;;;;;;;6271104;22;20460;-88
2022/01/30 05:20:55;;;;;;;0.50;0.30;;;;;;;;;;6241483;23;20427;-88
2022/01/30 05:23:23;;;;;;;1.25;0.30;;;;;;;;;;6240640;23;20036;-88
2022/01/30 05:25:52;;;;;;;0.35;0.20;;;;;;;;;;6240855;23;20024;-88
2022/01/30 05:28:24;;;;;;;0.60;0.40;;;;;;;;;;6241407;23;20604;-88
2022/01/30 05:30:51;;;;;;;0.93;0.38;;;;;;;;;;6239966;23;20012;-88
2022/01/30 05:33:19;;;;;;;2.67;0.50;;;;;;;;;;6239308;23;20028;-88
2022/01/30 05:35:46;;;;;;;0.40;0.38;;;;;;;;;;6237909;23;20126;-87
2022/01/30 05:38:13;;;;;;;0.75;0.38;;;;;;;;;;6238749;23;20218;-88
2022/01/30 05:40:40;;;;;;;0.85;0.40;;;;;;;;;;6239291;23;20035;-88
2022/01/30 05:43:07;;;;;;;0.35;0.20;;;;;;;;;;6240487;23;20078;-89
2022/01/30 05:45:40;;;;;;;1.52;0.25;;;;;;;;;;6239480;23;20064;-89
2022/01/30 05:48:11;;;;;;;0.22;0.10;;;;;;;;;;6239479;23;20361;-88
2022/01/30 05:50:39;;;;;;;0.45;0.30;;;;;;;;;;6238988;23;20027;-88
2022/01/30 05:53:05;;;;;;;0.45;0.20;;;;;;;;;;6238886;23;20028;-87
2022/01/30 05:55:32;;;;;;;0.38;0.13;;;;;;;;;;6239106;23;20028;-88
2022/01/30 05:57:59;;;;;;;0.20;0.20;;;;;;;;;;6240018;23;20039;-87
2022/01/30 06:00:26;;;;;;;0.10;0.10;;;;;;;;;;6240952;23;20082;-88
2022/01/30 06:02:54;;;;;;;3.25;0.98;;;;;;;;;;6239451;23;20028;-87
2022/01/30 06:05:23;;;;;;;2.17;0.50;;;;;;;;;;6241542;23;20090;-86
2022/01/30 06:07:51;;;;;;;0.20;0.20;;;;;;;;;;6241523;23;20020;-87
2022/01/30 06:10:26;;;;;;;1.40;0.55;;;;;;;;;;6239794;23;20111;-88
2022/01/30 06:12:53;;;;;;;1.07;0.50;;;;;;;;;;6239940;23;20078;-88
2022/01/30 06:15:20;;;;;;;0.95;0.63;;;;;;;;;;6238615;23;20024;-88
2022/01/30 06:17:47;;;;;;;0.98;0.50;;;;;;;;;;6240782;23;20023;-88
2022/01/30 06:20:15;;;;;;;0.60;0.40;;;;;;;;;;6261900;22;20089;-88
2022/01/30 06:22:42;;;;;;;0.35;0.30;;;;;;;;;;6270412;22;20082;-88
2022/01/30 06:25:10;;;;;;;1.10;0.60;;;;;;;;;;6270298;22;20019;-86
2022/01/30 06:27:38;;;;;;;0.95;0.60;;;;;;;;;;6270903;22;20065;-89
2022/01/30 06:30:06;;;;;;;1.67;0.50;;;;;;;;;;6271135;22;20046;-89
2022/01/30 06:32:33;;;;;;;1.35;0.60;;;;;;;;;;6270799;22;20093;-88
2022/01/30 06:35:00;;;;;;;1.42;1.17;;;;;;;;;;6270280;22;20078;-88
2022/01/30 06:37:29;;;;;;;1.70;0.50;;;;;;;;;;6272175;22;20085;-88
2022/01/30 06:39:55;;;;;;;0.45;0.40;;;;;;;;;;6270636;22;20073;-88
2022/01/30 06:42:23;;;;;;;1.98;0.50;;;;;;;;;;6270166;22;20112;-89
2022/01/30 06:44:50;;;;;;;1.77;0.40;;;;;;;;;;6269501;22;20047;-88
2022/01/30 06:47:17;;;;;;;0.40;0.40;;;;;;;;;;6270211;22;20028;-89
2022/01/30 06:49:44;;;;;;;1.02;0.60;;;;;;;;;;6269388;22;20331;-90
2022/01/30 06:52:11;;;;;;;0.57;0.40;;;;;;;;;;6270244;22;20016;-90
2022/01/30 06:54:40;;;;;;;2.08;0.57;;;;;;;;;;6269063;22;20024;-89
2022/01/30 06:57:08;;;;;;;1.10;0.50;;;;;;;;;;6269785;22;20473;-88
2022/01/30 06:59:36;;;;;;;0.73;0.40;;;;;;;;;;6270082;22;20020;-90
2022/01/30 07:02:04;;;;;;;0.30;0.30;;;;;;;;;;6270834;22;20032;-89
2022/01/30 07:04:31;;;;;;;3.78;1.30;;;;;;;;;;6269995;22;20055;-88
2022/01/30 07:06:58;;;;;;;4.47;1.92;;;;;;;;;;6270859;22;20023;-88
2022/01/30 07:09:25;;;;;;;5.65;2.20;;;;;;;;;;6270326;22;20027;-89
2022/01/30 07:11:57;;;;;;;7.90;2.65;;;;;;;;;;6270634;22;20424;-89
2022/01/30 07:14:23;;;;;;;5.55;2.05;;;;;;;;;;6269428;22;20093;-87
2022/01/30 07:16:50;;;;;;;3.30;1.52;;;;;;;;;;6270519;22;20024;-89
2022/01/30 07:19:17;;;;;;;4.43;1.50;;;;;;;;;;6269948;22;20027;-88
2022/01/30 07:21:46;;;;;;;4.03;1.40;;;;;;;;;;6271781;22;20357;-89
2022/01/30 07:24:12;;;;;;;4.72;2.00;;;;;;;;;;6270558;22;20036;-88
2022/01/30 07:26:39;;;;;;;8.00;2.85;;;;;;;;;;6269663;22;20020;-89
2022/01/30 07:29:08;;;;;;;6.25;2.65;;;;;;;;;;6270420;22;20028;-88
2022/01/30 07:31:35;;;;;;;6.95;2.15;;;;;;;;;;6270824;22;20012;-89
2022/01/30 07:34:02;;;;;;;3.35;1.50;;;;;;;;;;6269505;22;20039;-88
2022/01/30 07:36:30;;;;;;;4.00;2.47;;;;;;;;;;6268543;22;20077;-89
2022/01/30 07:39:00;;;;;;;2.53;0.80;;;;;;;;;;6270892;22;20020;-89
2022/01/30 07:41:27;;;;;;;3.53;1.40;;;;;;;;;;6269750;22;20028;-88
2022/01/30 07:43:54;;;;;;;2.90;1.10;;;;;;;;;;6272032;22;20413;-88
2022/01/30 07:46:22;;;;;;;3.30;1.35;;;;;;;;;;6269832;22;20031;-86
2022/01/30 07:48:49;;;;;;;6.20;2.10;;;;;;;;;;6271576;22;20049;-89
2022/01/30 07:51:16;;;;;;;3.75;1.20;;;;;;;;;;6271748;22;20016;-89
2022/01/30 07:53:43;;;;;;;2.38;1.15;;;;;;;;;;6271352;22;20058;-90
2022/01/30 07:56:10;;;;;;;4.57;1.48;;;;;;;;;;6271932;22;20081;-89
2022/01/30 07:58:37;;;;;;;2.90;1.08;;;;;;;;;;6271162;22;20020;-90
2022/01/30 08:01:04;;;;;;;3.08;0.85;;;;;;;;;;6272348;22;20012;-89
2022/01/30 08:03:42;;;;;;;3.42;1.10;;;;;;;;;;6272295;22;20023;-89
2022/01/30 08:06:08;;;;;;;1.95;1.17;;;;;;;;;;6221653;22;20396;-90
2022/01/30 08:08:39;;;;;;;3.10;1.08;;;;;;;;;;6271601;22;20020;-90
2022/01/30 08:11:19;;;;;;;4.78;1.10;;;;;;;;;;6271856;22;20081;-90
2022/01/30 08:13:52;;;;;;;3.67;1.90;;;;;;;;;;6272810;22;20050;-90
2022/01/30 08:16:24;;;;;;;2.63;1.40;;;;;;;;;;6271095;22;20016;-90
2022/01/30 08:21:57;;;;;;;2.45;1.20;;;;;;;;;;6268683;22;20016;-91
2022/01/30 08:24:39;;;;;;;2.10;1.00;;;;;;;;;;6247321;22;20024;-90
2022/01/30 08:27:08;;;;;;;1.90;1.00;;;;;;;;;;6271440;22;20043;-90
2022/01/30 08:29:52;;;;;;;2.97;0.95;;;;;;;;;;6272400;22;20026;-90
2022/01/30 08:37:52;;;;;;;4.35;1.10;;;;;;;;;;6270703;22;20034;-89
2022/01/30 08:40:27;;;;;;;4.80;1.67;;;;;;;;;;6271260;22;20023;-90
2022/01/30 08:42:54;;;;;;;5.82;1.65;;;;;;;;;;6246102;22;20024;-88
2022/01/30 08:45:22;;;;;;;7.20;1.70;;;;;;;;;;6270370;22;20024;-89
2022/01/30 08:47:51;;;;;;;7.20;1.48;;;;;;;;;;6271358;22;20342;-90
2022/01/30 08:50:20;;;;;;;5.07;2.10;;;;;;;;;;6270050;22;20024;-88
2022/01/30 08:52:52;;;;;;;3.03;1.20;;;;;;;;;;6271111;22;20019;-88
2022/01/30 08:55:25;;;;;;;4.15;1.60;;;;;;;;;;6272168;22;20016;-89
2022/01/30 08:57:52;;;;;;;5.63;1.40;;;;;;;;;;6244366;22;20403;-86
2022/01/30 09:00:19;;;;;;;6.82;1.80;;;;;;;;;;6270406;22;20082;-88
2022/01/30 09:02:46;;;;;;;6.93;1.73;;;;;;;;;;6269833;22;20016;-86
2022/01/30 09:05:13;;;;;;;5.20;1.65;;;;;;;;;;6270496;22;20074;-87
2022/01/30 09:07:42;;;;;;;6.45;1.70;;;;;;;;;;6269723;22;20077;-89
2022/01/30 09:10:11;;;;;;;6.30;1.90;;;;;;;;;;6271497;22;20073;-88
2022/01/30 09:12:39;;;;;;;8.32;1.77;;;;;;;;;;6269974;22;20020;-87
2022/01/30 09:15:07;;;;;;;4.47;1.55;;;;;;;;;;6269761;22;20391;-85
2022/01/30 09:17:34;;;;;;;6.45;2.30;;;;;;;;;;6270750;22;20024;-87
2022/01/30 09:20:06;;;;;;;6.78;2.03;;;;;;;;;;6270836;22;20027;-87
2022/01/30 09:22:33;;;;;;;4.82;1.90;;;;;;;;;;6244150;22;20119;-87
2022/01/30 09:25:01;;;;;;;10.27;2.13;;;;;;;;;;6272691;22;20042;-87
2022/01/30 09:27:28;;;;;;;6.53;1.77;;;;;;;;;;6273223;22;20019;-87
2022/01/30 09:29:56;;;;;;;8.68;2.65;;;;;;;;;;6273162;22;20081;-89
2022/01/30 09:32:24;;;;;;;4.38;1.65;;;;;;;;;;6273071;22;20015;-89
2022/01/30 09:34:59;;;;;;;6.13;1.88;;;;;;;;;;6247556;22;20059;-87
2022/01/30 09:37:26;;;;;;;6.25;1.88;;;;;;;;;;6273351;22;20023;-87
2022/01/30 09:39:53;;;;;;;17.92;3.65;;;;;;;;;;6274979;22;20081;-89
2022/01/30 09:42:24;;;;;;;7.05;2.08;;;;;;;;;;6274282;22;20457;-87
2022/01/30 10:27:09;;;;;;;;;;;;;;;;;;;;;
2022/01/30 11:18:24;;;;;;;9.63;2.10;;;;;;;;;;6027001;23;20027;-77
2022/01/30 11:20:58;;;;;;;9.07;3.10;;;;;;;;;;6034029;23;20023;-77
2022/01/30 11:23:56;;;;;;;8.10;2.00;;;;;;;;;;6035171;23;20024;-78
2022/01/30 11:27:17;;;;;;;6.57;1.80;;;;;;;;;;6032969;23;20556;-79
2022/01/30 11:30:11;;;;;;;7.25;1.83;;;;;;;;;;6022882;23;20029;-77
2022/01/30 11:33:07;;;;;;;8.48;1.92;;;;;;;;;;5933870;24;20533;-77
2022/01/30 11:35:42;;;;;;;8.45;2.50;;;;;;;;;;5977688;24;20021;-77
2022/01/30 11:38:13;;;;;;;9.17;2.53;;;;;;;;;;5988537;23;20528;-77
2022/01/30 11:40:51;;;;;;;9.35;1.90;;;;;;;;;;6006979;23;20256;-77
2022/01/30 11:43:24;;;;;;;11.23;3.25;;;;;;;;;;5941368;23;20031;-76
2022/01/30 11:46:14;;;;;;;6.68;1.98;;;;;;;;;;6129464;23;20022;-76
2022/01/30 11:49:16;;;;;;;11.05;2.13;;;;;;;;;;6151650;23;20049;-76
2022/01/30 11:52:02;;;;;;;9.82;2.45;;;;;;;;;;6151065;23;20030;-76
2022/01/30 11:55:01;;;;;;;6.95;1.52;;;;;;;;;;6151721;23;20022;-76
2022/01/30 11:57:51;;;;;;;7.30;2.58;;;;;;;;;;6062625;23;20023;-76
2022/01/30 12:00:49;;;;;;;5.03;1.98;;;;;;;;;;6062581;23;20102;-76
2022/01/30 12:03:32;;;;;;;6.35;2.03;;;;;;;;;;6061490;23;20110;-76
2022/01/30 12:06:36;;;;;;;8.27;2.40;;;;;;;;;;6061776;23;20034;-76
2022/01/30 12:09:40;;;;;;;7.50;1.75;;;;;;;;;;6033686;23;20395;-77
2022/01/30 12:12:11;;;;;;;4.25;1.55;;;;;;;;;;6062771;23;20523;-76
2022/01/30 12:14:58;;;;;;;6.50;2.20;;;;;;;;;;6061975;23;20026;-76
2022/01/30 12:18:00;;;;;;;3.90;1.42;;;;;;;;;;6061208;23;20030;-76
2022/01/30 12:21:00;;;;;;;6.82;1.52;;;;;;;;;;6062112;23;20027;-76
2022/01/30 12:23:38;;;;;;;5.75;1.77;;;;;;;;;;6062708;23;20027;-77
2022/01/30 12:26:14;;;;;;;5.43;2.00;;;;;;;;;;6040397;23;20086;-76
2022/01/30 12:28:48;;;;;;;5.95;1.88;;;;;;;;;;6062644;23;20552;-76
2022/01/30 12:31:40;;;;;;;8.10;1.95;;;;;;;;;;6062510;23;20093;-77
2022/01/30 12:34:19;;;;;;;5.80;1.73;;;;;;;;;;6134002;23;20049;-76
2022/01/30 12:37:03;;;;;;;8.80;2.42;;;;;;;;;;6150107;23;20017;-76
2022/01/30 12:39:43;;;;;;;6.82;1.70;;;;;;;;;;6150262;23;20105;-77
2022/01/30 12:42:34;;;;;;;7.47;1.50;;;;;;;;;;6167538;22;20024;-76
2022/01/30 12:45:35;;;;;;;;;;;;;;;;;;;;;
2022/01/30 12:52:10;;;;;;;6.40;1.42;;;;;;;;;;6004436;23;20028;-77
2022/01/30 13:33:49;;;;;;;8.38;1.50;;;;;;;;;;5837104;24;20735;-76
2022/01/30 13:40:57;;;;;;;;;;;;;;;;;;;;;
2022/01/30 14:32:48;;;;;;;4.93;1.77;;;;;;;;;;4907776;29;20124;-76
2022/01/30 14:48:31;;;;;;;8.32;1.83;;;;;;;;;;4903693;29;20073;-76
2022/01/30 14:51:00;;;;;;;5.47;1.70;;;;;;;;;;4900765;29;20056;-77
2022/01/30 14:53:30;;;;;;;8.13;1.63;;;;;;;;;;4884743;29;20064;-77
2022/01/30 14:55:59;;;;;;;7.32;1.90;;;;;;;;;;4911188;29;20067;-76
2022/01/30 14:58:28;;;;;;;7.93;1.58;;;;;;;;;;4942038;28;20048;-77
2022/01/30 15:00:57;;;;;;;4.78;1.50;;;;;;;;;;4941216;28;20067;-76
2022/01/30 15:03:31;;;;;;;4.68;1.75;;;;;;;;;;4940938;29;20251;-76
2022/01/30 15:06:04;;;;;;;4.38;2.10;;;;;;;;;;4993449;28;20046;-77
2022/01/30 15:08:31;;;;;;;4.63;1.42;;;;;;;;;;4995639;28;20050;-75
2022/01/30 15:11:05;;;;;;;7.57;1.73;;;;;;;;;;4995818;28;20601;-76
2022/01/30 15:13:36;;;;;;;5.90;1.52;;;;;;;;;;4997454;28;20058;-76
2022/01/30 15:16:13;;;;;;;10.57;2.30;;;;;;;;;;5060306;28;20063;-77
2022/01/30 15:18:54;;;;;;;8.38;3.40;;;;;;;;;;4935985;28;21538;-76
2022/01/30 15:21:20;;;;;;;10.02;2.38;;;;;;;;;;4932745;29;20055;-77
2022/01/30 15:23:53;;;;;;;4.85;1.70;;;;;;;;;;4987623;28;20050;-76
2022/01/30 15:26:46;;;;;;;7.63;1.83;;;;;;;;;;4990782;28;20046;-77
2022/01/30 15:29:18;;;;;;;6.72;1.80;;;;;;;;;;4939450;28;20055;-77
2022/01/30 15:32:10;;;;;;;8.60;2.78;;;;;;;;;;4995347;28;20558;-76
2022/01/30 15:34:44;;;;;;;7.00;1.95;;;;;;;;;;4990296;28;20092;-76
2022/01/30 15:37:26;;;;;;;11.57;3.35;;;;;;;;;;4985179;28;20083;-76
2022/01/30 15:39:52;;;;;;;8.02;2.80;;;;;;;;;;4990813;28;20058;-76
2022/01/30 15:51:03;;;;;;;9.30;2.45;;;;;;;;;;4989047;28;20058;-76
2022/01/30 15:53:50;;;;;;;12.27;2.78;;;;;;;;;;4979358;28;20046;-77
2022/01/30 15:56:16;;;;;;;5.03;2.17;;;;;;;;;;4982413;28;20562;-77
2022/01/30 15:58:43;;;;;;;8.27;2.58;;;;;;;;;;4988047;28;20183;-77
2022/01/30 16:01:10;;;;;;;11.93;2.88;;;;;;;;;;4986986;28;20058;-77
2022/01/30 16:03:39;;;;;;;9.52;2.65;;;;;;;;;;4982993;28;20432;-77
2022/01/30 16:06:19;;;;;;;5.68;1.98;;;;;;;;;;4984853;28;20042;-77
2022/01/30 16:08:54;;;;;;;6.03;2.10;;;;;;;;;;4990223;28;20043;-76
2022/01/30 16:12:00;;;;;;;15.23;3.58;;;;;;;;;;4986395;28;20777;-76
2022/01/30 16:17:09;;;;;;;11.88;4.53;;;;;;;;;;5026117;27;20098;-77
2022/01/30 16:19:38;;;;;;;12.70;3.13;;;;;;;;;;5098644;28;20138;-77
2022/01/30 16:22:06;;;;;;;22.13;7.82;;;;;;;;;;5104875;27;20437;-76
2022/01/30 16:24:32;;;;;;;19.45;4.78;;;;;;;;;;5105370;28;20130;-78
2022/01/30 16:26:59;;;;;;;10.75;5.20;;;;;;;;;;5106620;28;20144;-78
2022/01/30 16:29:25;;;;;;;9.98;4.18;;;;;;;;;;5101846;28;20176;-77
2022/01/30 16:31:52;;;;;;;7.63;2.88;;;;;;;;;;5107933;28;20139;-78
2022/01/30 16:34:18;;;;;;;6.78;2.88;;;;;;;;;;5102767;28;20170;-77
2022/01/30 16:36:45;;;;;;;12.70;3.08;;;;;;;;;;5101494;27;20167;-77
2022/01/30 16:39:13;;;;;;;6.97;2.22;;;;;;;;;;5103049;27;20194;-77
2022/01/30 16:41:46;;;;;;;7.93;2.92;;;;;;;;;;5105553;28;20138;-78
2022/01/30 16:44:15;;;;;;;7.60;2.53;;;;;;;;;;5102776;28;20051;-77
2022/01/30 16:49:25;;;;;;;12.75;3.65;;;;;;;;;;5104292;27;20036;-78
2022/01/30 17:09:54;;;;;;;8.63;3.05;;;;;;;;;;4875140;28;20583;-77
2022/01/30 17:16:15;;;;;;;10.70;5.38;;;;;;;;;;4956895;28;20228;-77
2022/01/30 17:18:49;;;;;;;15.18;4.07;;;;;;;;;;4956624;28;20043;-76
2022/01/30 17:21:23;;;;;;;8.98;3.42;;;;;;;;;;4955906;28;20046;-76
2022/01/30 17:23:52;;;;;;;9.00;2.47;;;;;;;;;;4959267;28;20523;-76
2022/01/30 17:26:44;;;;;;;7.05;2.50;;;;;;;;;;4959196;28;20047;-77
2022/01/30 17:38:18;;;;;;;7.05;2.80;;;;;;;;;;4941054;28;20209;-76
2022/01/30 20:02:26;;;;;;;10.65;4.15;;;;;;;;;;4838219;29;19924;-77
2022/01/30 20:04:57;;;;;;;11.45;4.15;;;;;;;;;;4901159;29;20056;-77
2022/01/30 20:08:25;;;;;;;24.17;11.00;;;;;;;;;;4924491;29;20051;-78
2022/01/30 20:18:25;;;;;;;13.95;4.25;;;;;;;;;;4859257;29;20084;-78
2022/01/30 21:17:49;;;;;;;6.70;3.53;;;;;;;;;;5912430;22;8622372;-90
2022/01/30 21:20:56;;;;;;;10.05;3.67;;;;;;;;;;6279156;22;20035;-91
2022/01/30 21:23:44;;;;;;;7.70;2.58;;;;;;;;;;6280771;22;20028;-90
2022/01/30 21:26:14;;;;;;;8.02;3.30;;;;;;;;;;6280241;22;20103;-90
2022/01/30 21:28:47;;;;;;;6.05;2.90;;;;;;;;;;6280485;22;20034;-90
2022/01/30 21:31:18;;;;;;;11.25;4.18;;;;;;;;;;6281121;22;20024;-90
2022/01/30 21:33:48;;;;;;;6.85;2.50;;;;;;;;;;6280874;22;20026;-90
2022/01/30 21:36:20;;;;;;;8.20;3.05;;;;;;;;;;6279541;22;20019;-90
2022/01/30 21:39:13;;;;;;;10.35;2.40;;;;;;;;;;6279793;22;20035;-90
2022/01/30 21:41:50;;;;;;;6.28;2.63;;;;;;;;;;6278568;22;20388;-90
2022/01/30 21:44:17;;;;;;;7.50;2.72;;;;;;;;;;6279633;22;20041;-90
2022/01/30 21:46:45;;;;;;;8.15;3.60;;;;;;;;;;6278930;22;20081;-90
2022/01/30 21:49:11;;;;;;;5.43;2.40;;;;;;;;;;6278926;22;20019;-90
2022/01/30 21:51:38;;;;;;;10.15;2.70;;;;;;;;;;6279061;22;20050;-90
2022/01/30 21:54:07;;;;;;;6.90;2.25;;;;;;;;;;6279222;22;20019;-90
2022/01/30 21:56:34;;;;;;;8.98;3.53;;;;;;;;;;6280152;22;20022;-90
2022/01/30 21:59:01;;;;;;;9.95;3.65;;;;;;;;;;6279685;22;20028;-90
2022/01/30 22:01:28;;;;;;;8.68;3.90;;;;;;;;;;6253432;22;20027;-90
2022/01/30 22:03:56;;;;;;;9.35;2.70;;;;;;;;;;6278735;22;20081;-90
2022/01/30 22:06:23;;;;;;;5.30;2.53;;;;;;;;;;6279272;22;20019;-90
2022/01/30 22:08:53;;;;;;;9.63;2.65;;;;;;;;;;6279871;22;20023;-90
2022/01/30 22:11:22;;;;;;;6.03;2.42;;;;;;;;;;6279722;22;20023;-90
2022/01/30 22:13:52;;;;;;;6.75;2.70;;;;;;;;;;6279388;22;20027;-90
2022/01/30 22:16:19;;;;;;;9.45;2.83;;;;;;;;;;6250723;22;20070;-90
2022/01/30 22:18:46;;;;;;;7.45;2.72;;;;;;;;;;6245552;22;20020;-90
2022/01/30 22:21:53;;;;;;;6.85;2.83;;;;;;;;;;6273153;22;20376;-90
2022/01/30 22:24:27;;;;;;;6.88;2.53;;;;;;;;;;6273771;22;20026;-90
2022/01/30 22:30:09;;;;;;;7.68;2.40;;;;;;;;;;6268758;22;20078;-90
2022/01/30 22:35:30;;;;;;;5.95;2.28;;;;;;;;;;6214719;22;20024;-77
2022/01/30 22:38:00;;;;;;;9.93;3.53;;;;;;;;;;6214409;23;20473;-78
2022/01/30 22:40:35;;;;;;;8.35;3.22;;;;;;;;;;6214498;23;20679;-77
2022/01/30 22:43:05;;;;;;;10.80;2.88;;;;;;;;;;6215233;23;20017;-78
2022/01/30 22:45:33;;;;;;;10.98;4.25;;;;;;;;;;6214210;23;20044;-77
2022/01/30 22:48:06;;;;;;;6.10;3.00;;;;;;;;;;6214079;23;20016;-78
2022/01/30 22:50:39;;;;;;;12.60;3.50;;;;;;;;;;6214567;23;20036;-77
2022/01/30 22:53:13;;;;;;;7.82;2.88;;;;;;;;;;6213965;23;20016;-77
2022/01/30 22:55:39;;;;;;;6.57;2.50;;;;;;;;;;6214113;23;20095;-77
2022/01/30 22:58:12;;;;;;;13.88;3.00;;;;;;;;;;6214593;23;20013;-77
2022/01/30 23:00:50;;;;;;;5.32;2.28;;;;;;;;;;6215541;23;20013;-77
2022/01/30 23:03:21;;;;;;;7.13;2.50;;;;;;;;;;6213662;23;20012;-76
2022/01/30 23:05:53;;;;;;;6.22;2.10;;;;;;;;;;6214636;23;20020;-77
2022/01/30 23:08:30;;;;;;;7.03;2.00;;;;;;;;;;6214653;23;20365;-77
2022/01/30 23:11:07;;;;;;;7.05;2.50;;;;;;;;;;6214981;23;20016;-77
2022/01/30 23:13:51;;;;;;;8.93;2.17;;;;;;;;;;6214957;23;20021;-77
2022/01/30 23:16:21;;;;;;;9.50;2.00;;;;;;;;;;6213682;23;20028;-77
2022/01/30 23:18:50;;;;;;;6.32;2.60;;;;;;;;;;6213926;23;20021;-77
2022/01/30 23:21:25;;;;;;;5.55;2.10;;;;;;;;;;6213569;23;20017;-77
2022/01/30 23:24:01;;;;;;;4.40;1.83;;;;;;;;;;6214315;23;20016;-77
2022/01/30 23:26:31;;;;;;;6.45;2.78;;;;;;;;;;6214308;23;20322;-77
2022/01/30 23:29:05;;;;;;;7.25;2.80;;;;;;;;;;6214225;23;20016;-77